Time;durP1;ratioP1;P1;durP2;ratioP2;P2;SDS_P1;SDS_P2;PMS_P1;PMS_P2;Temp;Humidity;BMP_temperature;BMP_pressure;BME280_temperature;BME280_humidity;BME280_pressure;Samples;Min_cycle;Max_cycle;Signal;HPM_P1;HPM_P2
2022/01/09 00:01:39;;;;;;;10.27;5.55;;;1.30;62.20;;;;;;5056383;28;20024;-37
2022/01/09 00:04:05;;;;;;;11.65;5.65;;;1.30;62.10;;;;;;5056677;28;20033;-37
2022/01/09 00:06:31;;;;;;;14.95;6.72;;;1.30;62.00;;;;;;5056123;28;20033;-37
2022/01/09 00:08:56;;;;;;;16.20;6.28;;;1.30;62.60;;;;;;5056441;28;20048;-37
2022/01/09 00:11:26;;;;;;;17.13;6.22;;;1.30;62.00;;;;;;5056027;28;20043;-37
2022/01/09 00:13:53;;;;;;;10.82;6.18;;;1.30;62.00;;;;;;5056439;28;20368;-37
2022/01/09 00:16:20;;;;;;;13.48;5.90;;;1.30;61.90;;;;;;5055778;28;20029;-37
2022/01/09 00:18:47;;;;;;;11.70;5.78;;;1.30;62.00;;;;;;5056188;28;20038;-37
2022/01/09 00:21:12;;;;;;;13.07;6.13;;;1.30;62.10;;;;;;5055739;28;20039;-37
2022/01/09 00:23:38;;;;;;;14.93;5.85;;;1.30;62.00;;;;;;5056083;28;20020;-37
2022/01/09 00:26:06;;;;;;;15.05;6.28;;;1.40;62.00;;;;;;5056108;28;20137;-37
2022/01/09 00:28:32;;;;;;;10.65;5.38;;;1.40;61.90;;;;;;5056244;28;20094;-37
2022/01/09 00:30:57;;;;;;;14.82;7.00;;;1.40;61.90;;;;;;5055755;28;20037;-38
2022/01/09 00:33:23;;;;;;;13.38;6.05;;;1.40;61.90;;;;;;5056010;28;20024;-37
2022/01/09 00:35:50;;;;;;;13.38;6.10;;;1.40;61.90;;;;;;5055577;28;20033;-37
2022/01/09 00:38:16;;;;;;;12.23;6.10;;;1.40;62.00;;;;;;5056167;28;20360;-37
2022/01/09 00:40:42;;;;;;;15.10;6.05;;;1.40;61.90;;;;;;5055653;28;20056;-37
2022/01/09 00:43:09;;;;;;;12.32;6.43;;;1.40;62.00;;;;;;5055814;28;20025;-38
2022/01/09 00:45:36;;;;;;;17.55;6.55;;;1.40;61.80;;;;;;5056005;28;20033;-38
2022/01/09 00:48:02;;;;;;;12.38;5.68;;;1.30;61.80;;;;;;5055678;28;20033;-38
2022/01/09 00:50:28;;;;;;;14.57;5.60;;;1.30;61.90;;;;;;5055142;28;20102;-37
2022/01/09 00:52:54;;;;;;;12.27;6.10;;;1.30;61.90;;;;;;5055698;28;20033;-37
2022/01/09 00:55:20;;;;;;;14.57;6.13;;;1.30;62.20;;;;;;5055282;28;20044;-38
2022/01/09 00:57:45;;;;;;;15.15;5.65;;;1.30;62.40;;;;;;5055755;28;20029;-38
2022/01/09 01:00:13;;;;;;;14.23;5.60;;;1.30;62.70;;;;;;5055614;28;20021;-37
2022/01/09 01:02:39;;;;;;;13.10;6.07;;;1.30;63.20;;;;;;5055506;28;20044;-37
2022/01/09 01:05:06;;;;;;;15.05;5.82;;;1.30;63.60;;;;;;5055464;28;20119;-37
2022/01/09 01:07:32;;;;;;;20.15;7.13;;;1.30;64.00;;;;;;5055890;28;20111;-37
2022/01/09 01:09:58;;;;;;;17.05;6.68;;;1.20;64.30;;;;;;5055702;28;20282;-37
2022/01/09 01:12:29;;;;;;;14.65;6.32;;;1.20;64.50;;;;;;5055570;28;20033;-37
2022/01/09 01:14:55;;;;;;;24.80;6.82;;;1.20;64.90;;;;;;5055693;28;20029;-37
2022/01/09 01:17:21;;;;;;;13.40;6.00;;;1.20;65.10;;;;;;5055541;28;20440;-38
2022/01/09 01:19:47;;;;;;;12.55;6.18;;;1.20;65.60;;;;;;5055498;28;20059;-37
2022/01/09 01:22:14;;;;;;;15.25;6.75;;;1.10;65.90;;;;;;5055558;28;20033;-37
2022/01/09 01:24:40;;;;;;;14.02;6.15;;;1.10;66.10;;;;;;5055112;28;20037;-37
2022/01/09 01:27:06;;;;;;;12.95;6.05;;;1.00;66.40;;;;;;5056638;28;20056;-37
2022/01/09 01:29:32;;;;;;;14.85;7.18;;;1.00;67.00;;;;;;5059255;28;20068;-37
2022/01/09 01:31:58;;;;;;;12.55;6.55;;;1.00;67.30;;;;;;5059266;28;20044;-38
2022/01/09 01:34:24;;;;;;;13.65;6.55;;;1.00;67.80;;;;;;5059009;28;20413;-38
2022/01/09 01:36:49;;;;;;;14.90;6.85;;;1.00;68.10;;;;;;5059153;28;20344;-37
2022/01/09 01:39:15;;;;;;;19.20;7.05;;;0.90;68.40;;;;;;5059009;28;20100;-37
2022/01/09 01:41:40;;;;;;;13.18;7.00;;;0.90;68.60;;;;;;5059206;28;20075;-37
2022/01/09 01:44:11;;;;;;;25.10;7.78;;;0.90;69.00;;;;;;5058732;28;20029;-37
2022/01/09 01:46:37;;;;;;;15.07;7.30;;;0.90;69.30;;;;;;5058939;28;20028;-37
2022/01/09 01:49:04;;;;;;;15.68;6.93;;;0.90;69.50;;;;;;5058873;28;20041;-37
2022/01/09 01:51:29;;;;;;;13.15;7.10;;;0.90;69.70;;;;;;5058715;28;20048;-38
2022/01/09 01:53:56;;;;;;;13.48;6.90;;;0.90;69.70;;;;;;5058994;28;20033;-37
2022/01/09 01:56:23;;;;;;;12.77;7.15;;;0.90;70.00;;;;;;5058566;28;20040;-37
2022/01/09 01:58:50;;;;;;;13.20;8.00;;;0.90;70.20;;;;;;5058837;28;20065;-37
2022/01/09 02:01:16;;;;;;;18.70;8.80;;;0.90;70.40;;;;;;5058310;28;20067;-37
2022/01/09 02:03:42;;;;;;;16.25;7.75;;;0.90;70.60;;;;;;5058742;28;20107;-37
2022/01/09 02:06:09;;;;;;;21.83;8.13;;;0.90;70.70;;;;;;5058324;28;20041;-38
2022/01/09 02:08:34;;;;;;;17.65;7.82;;;0.90;70.80;;;;;;5058676;28;20025;-37
2022/01/09 02:11:00;;;;;;;17.02;8.13;;;0.90;70.80;;;;;;5058294;28;20056;-37
2022/01/09 02:13:26;;;;;;;18.08;7.60;;;1.00;70.90;;;;;;5058725;28;20028;-37
2022/01/09 02:15:57;;;;;;;19.77;8.30;;;1.00;70.90;;;;;;5057935;28;20095;-38
2022/01/09 02:18:23;;;;;;;16.25;7.95;;;1.00;70.90;;;;;;5058585;28;20036;-37
2022/01/09 02:20:50;;;;;;;14.77;7.47;;;1.00;71.10;;;;;;5058306;28;20037;-37
2022/01/09 02:23:17;;;;;;;17.13;8.20;;;1.00;71.30;;;;;;5058523;28;20025;-37
2022/01/09 02:25:44;;;;;;;17.52;7.35;;;1.00;71.30;;;;;;5058261;28;20094;-37
2022/01/09 02:28:12;;;;;;;14.32;7.28;;;1.00;71.40;;;;;;5058169;28;20033;-37
2022/01/09 02:30:38;;;;;;;12.90;7.68;;;1.00;71.50;;;;;;5058372;28;20025;-38
2022/01/09 02:33:07;;;;;;;10.18;6.13;;;1.00;71.50;;;;;;5058161;28;20036;-38
2022/01/09 02:35:34;;;;;;;12.40;6.70;;;1.00;71.60;;;;;;5058290;28;20025;-38
2022/01/09 02:38:00;;;;;;;13.88;6.78;;;1.00;71.60;;;;;;5058205;28;20368;-37
2022/01/09 02:40:26;;;;;;;12.73;6.40;;;1.00;71.80;;;;;;5058094;28;20017;-37
2022/01/09 02:42:53;;;;;;;16.75;7.57;;;1.00;71.90;;;;;;5057881;28;20037;-37
2022/01/09 02:45:22;;;;;;;14.13;7.07;;;1.00;71.90;;;;;;5057961;28;20025;-37
2022/01/09 02:47:51;;;;;;;16.40;7.15;;;1.00;71.90;;;;;;5058228;28;20437;-38
2022/01/09 02:52:55;;;;;;;15.32;7.55;;;1.00;71.90;;;;;;5057815;28;20040;-37
2022/01/09 02:55:22;;;;;;;15.18;7.28;;;1.00;71.90;;;;;;5057339;28;20032;-37
2022/01/09 02:57:51;;;;;;;13.55;7.45;;;1.00;72.10;;;;;;5057823;28;20021;-37
2022/01/09 03:00:20;;;;;;;12.60;7.15;;;1.00;72.20;;;;;;5057573;28;20033;-38
2022/01/09 03:02:46;;;;;;;12.85;7.10;;;1.00;72.30;;;;;;5057916;28;20021;-38
2022/01/09 03:05:12;;;;;;;13.93;7.63;;;1.00;72.40;;;;;;5057665;28;20373;-37
2022/01/09 03:07:40;;;;;;;16.98;8.45;;;1.00;72.40;;;;;;5057792;28;20428;-38
2022/01/09 03:10:07;;;;;;;13.88;7.20;;;1.00;72.40;;;;;;5057548;28;20358;-37
2022/01/09 03:12:33;;;;;;;14.15;7.28;;;1.00;72.40;;;;;;5057697;28;20033;-37
2022/01/09 03:14:59;;;;;;;14.63;7.82;;;1.00;73.00;;;;;;5057390;28;20049;-37
2022/01/09 03:17:24;;;;;;;16.08;7.38;;;1.00;72.50;;;;;;5057295;28;20099;-38
2022/01/09 03:19:50;;;;;;;17.00;7.47;;;1.00;72.50;;;;;;5057084;28;20028;-38
2022/01/09 03:22:16;;;;;;;15.23;6.75;;;1.00;72.50;;;;;;5057244;28;20021;-38
2022/01/09 03:24:42;;;;;;;15.18;6.97;;;1.00;72.50;;;;;;5057220;28;20035;-37
2022/01/09 03:27:09;;;;;;;14.18;7.10;;;1.00;72.50;;;;;;5057398;28;20036;-38
2022/01/09 03:29:35;;;;;;;16.23;7.32;;;1.00;72.50;;;;;;5057170;28;20025;-37
2022/01/09 03:32:01;;;;;;;15.02;7.22;;;0.90;72.60;;;;;;5057388;28;20475;-38
2022/01/09 03:34:26;;;;;;;11.23;6.53;;;0.90;72.60;;;;;;5057010;28;20083;-37
2022/01/09 03:36:52;;;;;;;14.43;7.25;;;0.90;72.60;;;;;;5057025;28;20025;-38
2022/01/09 03:39:18;;;;;;;13.43;7.50;;;0.90;72.80;;;;;;5056996;28;20032;-38
2022/01/09 03:41:44;;;;;;;13.68;7.07;;;0.90;72.90;;;;;;5056601;28;20104;-38
2022/01/09 03:44:09;;;;;;;17.65;8.68;;;0.90;73.10;;;;;;5055319;28;20163;-37
2022/01/09 03:46:35;;;;;;;14.80;8.20;;;0.90;73.30;;;;;;5056537;28;20025;-38
2022/01/09 03:49:01;;;;;;;19.52;8.43;;;0.90;73.40;;;;;;5056162;28;20108;-37
2022/01/09 03:51:32;;;;;;;19.85;9.20;;;0.90;73.50;;;;;;5056070;28;20029;-38
2022/01/09 03:53:58;;;;;;;22.23;9.07;;;0.90;73.60;;;;;;5056810;28;20056;-38
2022/01/09 03:56:25;;;;;;;17.70;9.73;;;0.90;73.60;;;;;;5056290;28;20111;-37
2022/01/09 03:58:51;;;;;;;24.65;9.93;;;0.90;73.70;;;;;;5056800;28;20033;-37
2022/01/09 04:01:16;;;;;;;18.85;10.20;;;0.90;73.70;;;;;;5055954;28;20029;-37
2022/01/09 04:03:42;;;;;;;21.25;9.88;;;0.90;73.80;;;;;;5056479;28;20021;-37
2022/01/09 04:06:08;;;;;;;19.67;10.48;;;0.80;73.90;;;;;;5056281;28;20036;-37
2022/01/09 04:08:34;;;;;;;21.83;11.23;;;0.80;74.00;;;;;;5056383;28;20321;-37
2022/01/09 04:11:03;;;;;;;21.83;11.20;;;0.80;74.10;;;;;;5055957;28;20026;-37
2022/01/09 04:13:29;;;;;;;21.83;11.50;;;0.80;74.20;;;;;;5056517;28;20159;-38
2022/01/09 04:15:54;;;;;;;25.30;12.15;;;0.80;74.20;;;;;;5055783;28;20465;-37
2022/01/09 04:18:22;;;;;;;23.88;11.55;;;0.80;74.30;;;;;;5056538;28;20032;-38
2022/01/09 04:20:48;;;;;;;23.38;11.05;;;0.80;74.40;;;;;;5056086;28;20053;-37
2022/01/09 04:23:15;;;;;;;26.83;12.20;;;0.70;74.40;;;;;;5055875;28;20028;-37
2022/01/09 04:25:42;;;;;;;29.23;11.73;;;0.80;74.70;;;;;;5056266;28;20033;-38
2022/01/09 04:28:08;;;;;;;28.55;11.38;;;0.80;74.80;;;;;;5056169;28;20654;-37
2022/01/09 04:30:34;;;;;;;24.35;11.13;;;0.80;74.70;;;;;;5055550;28;20025;-38
2022/01/09 04:32:59;;;;;;;25.00;10.88;;;0.80;74.80;;;;;;5056241;28;20039;-37
2022/01/09 04:35:25;;;;;;;26.70;11.48;;;0.80;74.80;;;;;;5055222;28;20029;-37
2022/01/09 04:37:52;;;;;;;22.90;11.13;;;0.80;74.80;;;;;;5055827;28;20151;-37
2022/01/09 04:40:19;;;;;;;23.90;11.20;;;0.80;74.90;;;;;;5055771;28;20039;-38
2022/01/09 04:42:49;;;;;;;25.85;11.00;;;0.80;74.90;;;;;;5055751;28;20029;-37
2022/01/09 04:45:17;;;;;;;23.00;11.30;;;0.70;75.10;;;;;;5055831;28;20083;-38
2022/01/09 04:47:46;;;;;;;26.70;12.30;;;0.80;75.30;;;;;;5056098;28;20029;-37
2022/01/09 04:50:17;;;;;;;23.92;12.00;;;0.80;75.50;;;;;;5055245;28;20283;-38
2022/01/09 04:52:43;;;;;;;24.92;11.57;;;0.80;75.40;;;;;;5055619;28;20029;-38
2022/01/09 04:55:10;;;;;;;26.25;11.85;;;0.80;75.30;;;;;;5055444;28;20033;-37
2022/01/09 04:57:36;;;;;;;30.75;13.23;;;0.80;75.30;;;;;;5055381;28;20033;-37
2022/01/09 05:00:04;;;;;;;28.08;13.20;;;0.80;75.30;;;;;;5055355;28;20028;-37
2022/01/09 05:02:29;;;;;;;31.13;13.38;;;0.80;75.40;;;;;;5057486;28;20025;-38
2022/01/09 05:04:55;;;;;;;28.17;12.80;;;0.80;75.50;;;;;;5059653;28;20032;-37
2022/01/09 05:07:20;;;;;;;32.30;14.23;;;0.80;75.60;;;;;;5058516;28;20056;-38
2022/01/09 05:09:46;;;;;;;29.73;14.02;;;0.80;75.70;;;;;;5059665;28;20075;-37
2022/01/09 05:12:12;;;;;;;38.47;17.92;;;0.80;75.80;;;;;;5059884;28;20044;-38
2022/01/09 05:14:37;;;;;;;29.60;14.10;;;0.80;75.60;;;;;;5059386;28;20037;-38
2022/01/09 05:17:03;;;;;;;35.53;15.23;;;0.80;75.60;;;;;;5059671;28;20409;-38
2022/01/09 05:19:33;;;;;;;32.13;15.57;;;0.80;75.60;;;;;;5059420;28;20425;-37
2022/01/09 05:22:00;;;;;;;33.95;16.63;;;0.80;75.70;;;;;;5059158;28;20090;-38
2022/01/09 05:24:26;;;;;;;35.65;17.05;;;0.90;75.80;;;;;;5059520;28;20478;-37
2022/01/09 05:26:51;;;;;;;29.45;16.33;;;0.80;75.80;;;;;;5059111;28;20033;-38
2022/01/09 05:29:17;;;;;;;36.00;16.05;;;0.90;76.00;;;;;;5059170;28;20043;-38
2022/01/09 05:31:44;;;;;;;31.95;14.73;;;0.90;76.00;;;;;;5059251;28;20040;-37
2022/01/09 05:34:10;;;;;;;31.52;14.05;;;0.90;76.00;;;;;;5059141;28;20040;-37
2022/01/09 05:36:36;;;;;;;36.67;14.77;;;0.90;76.20;;;;;;5059296;28;20037;-37
2022/01/09 05:39:02;;;;;;;31.15;14.95;;;0.80;75.80;;;;;;5059495;28;20052;-38
2022/01/09 05:41:28;;;;;;;35.47;15.43;;;0.80;75.90;;;;;;5058608;28;20120;-37
2022/01/09 05:43:54;;;;;;;34.30;14.93;;;0.80;76.00;;;;;;5057904;28;20112;-37
2022/01/09 05:46:19;;;;;;;34.08;16.38;;;0.80;76.10;;;;;;5058484;28;20045;-37
2022/01/09 05:48:45;;;;;;;34.42;16.00;;;0.80;76.00;;;;;;5058314;28;20049;-37
2022/01/09 05:51:11;;;;;;;33.42;16.25;;;0.80;76.00;;;;;;5058550;28;20040;-37
2022/01/09 05:53:36;;;;;;;36.85;17.35;;;0.80;76.20;;;;;;5058843;28;20037;-38
2022/01/09 05:56:02;;;;;;;41.00;18.13;;;0.80;76.20;;;;;;5058606;28;20033;-37
2022/01/09 05:58:28;;;;;;;39.10;18.35;;;0.80;76.30;;;;;;5058793;28;20233;-38
2022/01/09 06:00:53;;;;;;;34.10;16.52;;;0.80;76.30;;;;;;5058266;28;20036;-38
2022/01/09 06:03:19;;;;;;;35.33;17.20;;;0.80;76.30;;;;;;5058633;28;20086;-37
2022/01/09 06:05:45;;;;;;;35.25;16.95;;;0.80;76.30;;;;;;5058102;28;20056;-37
2022/01/09 06:08:10;;;;;;;39.30;16.40;;;0.80;76.30;;;;;;5058520;28;20029;-38
2022/01/09 06:10:36;;;;;;;34.55;16.13;;;0.80;76.40;;;;;;5058597;28;20311;-37
2022/01/09 06:13:02;;;;;;;33.90;15.48;;;0.80;76.40;;;;;;5058173;28;20044;-37
2022/01/09 06:15:27;;;;;;;31.88;14.75;;;0.80;76.40;;;;;;5058687;28;20047;-37
2022/01/09 06:17:53;;;;;;;31.35;15.68;;;0.80;76.40;;;;;;5058358;28;20409;-38
2022/01/09 06:20:19;;;;;;;35.58;15.95;;;0.80;76.40;;;;;;5058263;28;20064;-37
2022/01/09 06:22:45;;;;;;;39.38;15.90;;;0.90;76.60;;;;;;5058606;28;20033;-38
2022/01/09 06:25:11;;;;;;;36.95;15.60;;;0.90;76.70;;;;;;5058078;28;20112;-38
2022/01/09 06:27:37;;;;;;;37.97;16.77;;;0.90;76.60;;;;;;5058466;28;20036;-37
2022/01/09 06:30:07;;;;;;;34.10;15.43;;;0.90;76.50;;;;;;5056837;28;20082;-37
2022/01/09 06:32:33;;;;;;;33.28;15.70;;;1.00;76.60;;;;;;5058061;28;20087;-38
2022/01/09 06:34:58;;;;;;;38.70;16.70;;;0.90;76.50;;;;;;5058040;28;20380;-37
2022/01/09 06:37:24;;;;;;;36.75;15.88;;;1.00;76.50;;;;;;5058263;28;20029;-39
2022/01/09 06:39:50;;;;;;;36.50;16.05;;;1.00;76.50;;;;;;5057813;28;20055;-38
2022/01/09 06:42:15;;;;;;;50.00;20.33;;;1.00;76.40;;;;;;5057645;28;20385;-38
2022/01/09 06:44:41;;;;;;;46.38;18.58;;;1.00;76.40;;;;;;5057850;28;20033;-37
2022/01/09 06:47:07;;;;;;;44.75;17.35;;;1.00;76.60;;;;;;5057704;28;20044;-37
2022/01/09 06:49:34;;;;;;;36.60;16.42;;;1.00;76.70;;;;;;5057275;28;20053;-37
2022/01/09 06:52:00;;;;;;;42.30;19.50;;;1.10;76.80;;;;;;5057823;28;20037;-37
2022/01/09 06:54:27;;;;;;;68.05;25.63;;;1.10;76.70;;;;;;5057388;28;20397;-37
2022/01/09 06:56:52;;;;;;;48.22;19.52;;;1.10;76.60;;;;;;5057610;28;20025;-38
2022/01/09 06:59:18;;;;;;;40.58;17.50;;;1.10;76.60;;;;;;5057535;28;20025;-37
2022/01/09 07:01:43;;;;;;;40.90;17.88;;;1.10;76.50;;;;;;5057217;28;20082;-38
2022/01/09 07:04:09;;;;;;;40.08;16.80;;;1.10;76.40;;;;;;5057495;28;20044;-38
2022/01/09 07:06:35;;;;;;;38.92;17.48;;;1.10;76.40;;;;;;5056732;28;20053;-38
2022/01/09 07:09:02;;;;;;;35.53;17.45;;;1.10;76.40;;;;;;5057336;28;20088;-38
2022/01/09 07:11:27;;;;;;;43.40;17.48;;;1.20;76.60;;;;;;5056879;28;20033;-38
2022/01/09 07:13:54;;;;;;;41.70;17.40;;;1.20;76.60;;;;;;5057369;28;20033;-37
2022/01/09 07:16:20;;;;;;;39.60;17.23;;;1.20;76.50;;;;;;5056907;28;20108;-38
2022/01/09 07:18:45;;;;;;;36.30;15.55;;;1.20;76.40;;;;;;5057325;28;20112;-37
2022/01/09 07:21:11;;;;;;;46.03;18.45;;;1.20;76.20;;;;;;5056602;28;20029;-38
2022/01/09 07:23:37;;;;;;;37.13;17.45;;;1.20;76.40;;;;;;5056757;28;20021;-38
2022/01/09 07:26:03;;;;;;;50.85;22.05;;;1.30;76.60;;;;;;5056171;28;20082;-37
2022/01/09 07:28:29;;;;;;;59.38;21.75;;;1.30;76.70;;;;;;5056990;28;20115;-37
2022/01/09 07:30:54;;;;;;;48.55;17.67;;;1.30;76.70;;;;;;5055574;28;20033;-38
2022/01/09 07:33:20;;;;;;;43.70;19.02;;;1.30;76.60;;;;;;5056818;28;20029;-37
2022/01/09 07:35:46;;;;;;;40.90;17.38;;;1.40;76.60;;;;;;5056709;28;20029;-37
2022/01/09 07:38:11;;;;;;;41.13;17.27;;;1.40;76.40;;;;;;5056598;28;20103;-38
2022/01/09 07:40:37;;;;;;;37.25;16.20;;;1.40;76.30;;;;;;5056248;28;20098;-38
2022/01/09 07:43:03;;;;;;;43.22;17.17;;;1.40;76.20;;;;;;5056576;28;20033;-38
2022/01/09 07:45:29;;;;;;;39.00;15.93;;;1.40;76.10;;;;;;5056757;28;20309;-37
2022/01/09 07:47:57;;;;;;;46.03;17.65;;;1.40;76.00;;;;;;5056937;28;20025;-38
2022/01/09 07:50:23;;;;;;;39.58;17.05;;;1.40;75.90;;;;;;5056176;28;20528;-37
2022/01/09 07:52:50;;;;;;;38.33;15.90;;;1.40;76.00;;;;;;5056464;28;20037;-37
2022/01/09 07:55:19;;;;;;;41.30;17.40;;;1.40;76.00;;;;;;5056494;28;20035;-37
2022/01/09 07:57:45;;;;;;;31.88;15.35;;;1.40;76.00;;;;;;5056529;28;20029;-38
2022/01/09 08:00:12;;;;;;;38.80;16.48;;;1.40;76.10;;;;;;5056179;28;20017;-38
2022/01/09 08:02:38;;;;;;;44.95;16.73;;;1.40;76.10;;;;;;5056742;28;20029;-38
2022/01/09 08:05:04;;;;;;;35.97;14.82;;;1.40;76.30;;;;;;5056210;28;20052;-38
2022/01/09 08:07:30;;;;;;;33.47;15.50;;;1.40;76.30;;;;;;5056164;28;20037;-38
2022/01/09 08:09:56;;;;;;;39.95;15.27;;;1.40;76.30;;;;;;5056258;28;20073;-38
2022/01/09 08:12:21;;;;;;;46.10;19.30;;;1.40;76.40;;;;;;5053451;28;20431;-38
2022/01/09 08:14:47;;;;;;;41.80;17.23;;;1.50;76.40;;;;;;5055728;28;20064;-38
2022/01/09 08:17:13;;;;;;;40.42;16.10;;;1.50;76.50;;;;;;5056056;28;20401;-39
2022/01/09 08:19:40;;;;;;;38.55;15.20;;;1.50;76.30;;;;;;5055714;28;20029;-39
2022/01/09 08:22:07;;;;;;;40.35;15.82;;;1.50;76.30;;;;;;5055552;28;20029;-38
2022/01/09 08:24:34;;;;;;;40.85;17.33;;;1.50;76.30;;;;;;5055948;28;20033;-38
2022/01/09 08:27:00;;;;;;;38.42;15.65;;;1.50;76.30;;;;;;5055717;28;20033;-38
2022/01/09 08:29:26;;;;;;;34.63;14.55;;;1.50;76.40;;;;;;5055677;28;20389;-39
2022/01/09 08:31:52;;;;;;;28.15;13.15;;;1.60;76.40;;;;;;5055352;28;20041;-39
2022/01/09 08:34:18;;;;;;;31.90;14.90;;;1.60;76.30;;;;;;5055545;28;20025;-39
2022/01/09 08:36:44;;;;;;;30.80;13.57;;;1.60;76.20;;;;;;5055324;28;20116;-38
2022/01/09 08:39:12;;;;;;;35.03;15.32;;;1.70;76.00;;;;;;5055497;28;20021;-38
2022/01/09 08:41:39;;;;;;;36.78;16.20;;;1.70;76.00;;;;;;5055506;28;20041;-39
2022/01/09 08:44:06;;;;;;;37.65;16.17;;;1.70;76.00;;;;;;5055633;28;20028;-39
2022/01/09 08:46:34;;;;;;;49.20;21.30;;;1.60;76.00;;;;;;5055357;28;20037;-38
2022/01/09 08:49:00;;;;;;;74.45;32.85;;;1.60;76.00;;;;;;5055599;28;20049;-38
2022/01/09 08:51:27;;;;;;;44.25;21.88;;;1.60;76.00;;;;;;5055249;28;20029;-37
2022/01/09 08:53:53;;;;;;;75.03;39.40;;;1.60;76.00;;;;;;5055399;28;20112;-38
2022/01/09 08:56:20;;;;;;;48.08;22.60;;;1.60;76.10;;;;;;5055098;28;20112;-37
2022/01/09 08:58:46;;;;;;;49.03;23.73;;;1.60;76.30;;;;;;5056007;28;20029;-37
2022/01/09 09:01:12;;;;;;;40.72;19.27;;;1.60;76.40;;;;;;5054954;28;20028;-38
2022/01/09 09:03:41;;;;;;;43.55;17.65;;;1.60;76.40;;;;;;5055838;28;20462;-38
2022/01/09 09:06:11;;;;;;;38.80;18.38;;;1.70;76.40;;;;;;5055354;28;20048;-37
2022/01/09 09:08:38;;;;;;;35.75;17.10;;;1.70;76.60;;;;;;5055055;28;20119;-37
2022/01/09 09:11:08;;;;;;;38.38;16.08;;;1.70;76.50;;;;;;5055006;28;20037;-38
2022/01/09 09:13:34;;;;;;;38.50;17.23;;;1.70;76.60;;;;;;5055523;28;20032;-37
2022/01/09 09:16:00;;;;;;;44.40;20.42;;;1.80;76.70;;;;;;5054245;28;20118;-38
2022/01/09 09:18:26;;;;;;;37.10;15.73;;;1.80;76.60;;;;;;5055320;28;20025;-38
2022/01/09 09:20:52;;;;;;;41.28;18.65;;;1.80;76.60;;;;;;5055184;28;20025;-37
2022/01/09 09:23:19;;;;;;;44.80;18.77;;;1.90;76.60;;;;;;5055300;28;20032;-38
2022/01/09 09:25:44;;;;;;;33.65;14.80;;;1.90;76.40;;;;;;5055112;28;20041;-38
2022/01/09 09:28:10;;;;;;;42.95;18.08;;;1.90;76.20;;;;;;5055168;28;20090;-38
2022/01/09 09:30:36;;;;;;;39.90;16.92;;;1.90;76.00;;;;;;5054812;28;20430;-37
2022/01/09 09:33:05;;;;;;;36.00;15.25;;;1.90;76.00;;;;;;5055448;28;20029;-38
2022/01/09 09:35:34;;;;;;;34.83;15.48;;;1.90;76.00;;;;;;5055312;28;20329;-37
2022/01/09 09:38:01;;;;;;;35.42;16.20;;;1.80;75.70;;;;;;5054895;28;20033;-37
2022/01/09 09:40:27;;;;;;;42.13;18.95;;;1.80;75.60;;;;;;5054616;28;20113;-38
2022/01/09 09:42:54;;;;;;;45.33;18.35;;;1.80;75.80;;;;;;5055211;28;20048;-38
2022/01/09 09:45:20;;;;;;;35.97;17.15;;;1.80;76.10;;;;;;5055067;28;20100;-37
2022/01/09 09:47:46;;;;;;;36.25;15.07;;;1.80;76.20;;;;;;5055861;28;20368;-38
2022/01/09 09:50:15;;;;;;;38.05;16.35;;;1.80;76.20;;;;;;5058147;28;20412;-37
2022/01/09 09:52:43;;;;;;;35.30;15.73;;;1.80;76.30;;;;;;5058733;28;20025;-37
2022/01/09 09:55:09;;;;;;;45.30;18.08;;;1.80;76.50;;;;;;5058475;28;20033;-38
2022/01/09 09:57:35;;;;;;;43.60;17.02;;;1.80;76.40;;;;;;5059034;28;20425;-37
2022/01/09 10:00:08;;;;;;;41.10;17.75;;;1.80;76.40;;;;;;5058764;28;20055;-37
2022/01/09 10:02:47;;;;;;;48.67;20.60;;;1.80;76.20;;;;;;5058335;28;20059;-37
2022/01/09 10:05:16;;;;;;;43.15;17.92;;;1.80;76.40;;;;;;5058478;28;20108;-38
2022/01/09 10:07:42;;;;;;;36.40;17.13;;;1.80;77.10;;;;;;5058551;28;20353;-38
2022/01/09 10:10:11;;;;;;;38.65;18.38;;;1.80;76.60;;;;;;5058326;28;20103;-37
2022/01/09 10:12:38;;;;;;;43.92;20.00;;;1.90;76.80;;;;;;5058415;28;20033;-38
2022/01/09 10:15:07;;;;;;;55.15;26.05;;;1.90;76.70;;;;;;5058208;28;20430;-37
2022/01/09 10:17:33;;;;;;;60.20;29.42;;;2.00;76.80;;;;;;5058260;28;20032;-38
2022/01/09 10:20:11;;;;;;;47.53;20.98;;;2.00;76.80;;;;;;5057749;28;20036;-37
2022/01/09 10:22:39;;;;;;;43.40;20.50;;;2.00;76.80;;;;;;5058571;28;20058;-37
2022/01/09 10:25:26;;;;;;;44.97;19.05;;;2.10;76.70;;;;;;5058091;28;20032;-38
2022/01/09 10:28:14;;;;;;;46.67;21.25;;;2.10;76.70;;;;;;5058327;28;20025;-38
2022/01/09 10:30:45;;;;;;;43.25;19.63;;;2.10;76.70;;;;;;5058101;28;20037;-37
2022/01/09 10:33:12;;;;;;;;;;;2.20;76.70;;;;;;5058370;28;20095;-38
2022/01/09 10:35:43;;;;;;;40.25;17.25;;;2.20;76.50;;;;;;5057760;28;20003;-37
2022/01/09 10:38:32;;;;;;;47.40;18.90;;;2.20;76.50;;;;;;5057711;28;20021;-37
2022/01/09 10:41:01;;;;;;;48.13;19.23;;;2.20;76.50;;;;;;5057319;28;20041;-38
2022/01/09 10:43:33;;;;;;;47.28;19.17;;;2.20;76.50;;;;;;5057532;28;20036;-38
2022/01/09 10:45:59;;;;;;;52.17;19.48;;;2.20;76.50;;;;;;5057508;28;20033;-37
2022/01/09 10:48:43;;;;;;;43.67;19.75;;;2.30;76.50;;;;;;5057477;28;20045;-39
2022/01/09 10:51:12;;;;;;;57.75;21.00;;;2.30;76.60;;;;;;5057189;28;20048;-38
2022/01/09 10:53:42;;;;;;;54.10;23.25;;;2.30;76.70;;;;;;5057684;28;20063;-38
2022/01/09 10:56:15;;;;;;;45.47;20.40;;;2.30;76.70;;;;;;5057051;28;20033;-38
2022/01/09 10:58:46;;;;;;;51.97;22.65;;;2.30;76.70;;;;;;5057668;28;20350;-38
2022/01/09 11:01:21;;;;;;;;;;;2.40;76.70;;;;;;5057349;28;20029;-38
2022/01/09 11:03:54;;;;;;;49.03;21.60;;;2.40;76.60;;;;;;5057410;28;20350;-38
2022/01/09 11:06:22;;;;;;;43.50;17.08;;;2.40;76.80;;;;;;5057240;28;20033;-37
2022/01/09 11:08:49;;;;;;;41.70;16.83;;;2.40;76.70;;;;;;5057353;28;20064;-38
2022/01/09 11:13:56;;;;;;;51.08;19.85;;;2.40;76.70;;;;;;5057614;28;20108;-37
2022/01/09 11:16:37;;;;;;;47.55;19.92;;;2.40;76.70;;;;;;5056665;28;20045;-38
2022/01/09 11:19:25;;;;;;;59.80;27.67;;;2.40;76.70;;;;;;5057533;28;20021;-38
2022/01/09 11:22:01;;;;;;;66.88;32.45;;;2.40;76.60;;;;;;5057046;28;20116;-38
2022/01/09 11:25:00;;;;;;;66.45;30.38;;;2.50;76.70;;;;;;5057068;28;20312;-37
2022/01/09 11:27:50;;;;;;;53.30;24.48;;;2.50;76.70;;;;;;5056936;28;20039;-38
2022/01/09 11:30:50;;;;;;;53.47;21.52;;;2.50;77.10;;;;;;5056921;28;20070;-38
2022/01/09 11:33:38;;;;;;;49.63;20.73;;;2.50;76.50;;;;;;5056991;28;20156;-38
2022/01/09 11:36:22;;;;;;;46.30;19.85;;;2.50;76.50;;;;;;5056611;28;20382;-38
2022/01/09 11:39:31;;;;;;;48.97;21.90;;;2.60;76.60;;;;;;5056751;28;20032;-38
2022/01/09 11:42:15;;;;;;;44.30;20.05;;;2.60;76.50;;;;;;5054130;28;20041;-38
2022/01/09 11:44:49;;;;;;;39.15;16.48;;;2.60;76.40;;;;;;5053955;28;20024;-38
2022/01/09 11:47:15;;;;;;;38.47;17.67;;;2.50;76.40;;;;;;5055359;28;20337;-39
2022/01/09 11:50:01;;;;;;;36.63;15.45;;;2.50;76.40;;;;;;5050441;28;20060;-38
2022/01/09 11:52:28;;;;;;;46.33;17.58;;;2.50;76.40;;;;;;5050376;28;20037;-39
2022/01/09 11:55:01;;;;;;;44.75;17.90;;;2.50;76.60;;;;;;5056322;28;20352;-39
2022/01/09 11:57:46;;;;;;;40.88;17.55;;;2.50;76.60;;;;;;5056675;28;20032;-38
2022/01/09 12:00:34;;;;;;;39.33;15.93;;;2.50;76.70;;;;;;5056120;28;20482;-38
2022/01/09 12:03:20;;;;;;;47.53;20.33;;;2.50;76.90;;;;;;5056137;28;20025;-37
2022/01/09 12:06:02;;;;;;;55.13;21.08;;;2.40;77.10;;;;;;5055520;28;20083;-38
2022/01/09 12:08:48;;;;;;;46.50;19.38;;;2.50;77.30;;;;;;5056224;28;20029;-38
2022/01/09 12:11:13;;;;;;;57.67;20.77;;;2.50;77.50;;;;;;5055323;28;20028;-39
2022/01/09 12:13:41;;;;;;;47.95;19.90;;;2.50;77.50;;;;;;5056311;28;20313;-38
2022/01/09 12:16:09;;;;;;;43.33;19.45;;;2.50;77.60;;;;;;5055670;28;20064;-38
2022/01/09 12:18:45;;;;;;;48.08;22.25;;;2.50;77.60;;;;;;5056427;28;20425;-37
2022/01/09 12:21:36;;;;;;;39.95;18.02;;;2.60;77.70;;;;;;5055864;28;20025;-38
2022/01/09 12:24:38;;;;;;;45.72;19.75;;;2.60;77.60;;;;;;5056214;28;20433;-38
2022/01/09 12:27:36;;;;;;;43.83;18.80;;;2.60;77.60;;;;;;5056001;28;20025;-38
2022/01/09 12:30:05;;;;;;;40.30;16.13;;;2.60;77.50;;;;;;5054315;28;20041;-38
2022/01/09 12:32:38;;;;;;;39.13;17.42;;;2.60;78.10;;;;;;5055872;28;20417;-38
2022/01/09 12:35:19;;;;;;;45.75;18.67;;;2.70;77.70;;;;;;5055759;28;20079;-38
2022/01/09 12:37:52;;;;;;;43.40;18.23;;;2.60;77.70;;;;;;5055743;28;20029;-38
2022/01/09 12:40:20;;;;;;;47.20;18.33;;;2.60;77.70;;;;;;5055865;28;20048;-38
2022/01/09 12:42:48;;;;;;;52.45;21.92;;;2.60;77.80;;;;;;5055723;28;20079;-38
2022/01/09 12:45:19;;;;;;;47.67;18.92;;;2.70;77.90;;;;;;5055863;28;20317;-37
2022/01/09 12:47:46;;;;;;;50.38;19.60;;;2.60;78.00;;;;;;5055912;28;20363;-38
2022/01/09 12:50:11;;;;;;;61.40;25.23;;;2.70;78.10;;;;;;5054957;28;20159;-38
2022/01/09 12:52:37;;;;;;;75.63;35.20;;;2.70;78.20;;;;;;5056019;28;20025;-37